createdAt,value
2019-03-01T00:06:37.252Z,10.70
2019-03-01T00:11:18.249Z,11.50
2019-03-01T00:16:00.790Z,11.00
2019-03-01T00:20:43.331Z,11.20
2019-03-01T00:25:23.958Z,11.10
2019-03-01T00:30:04.667Z,10.70
2019-03-01T00:34:45.323Z,11.20
2019-03-01T00:39:26.022Z,11.10
2019-03-01T00:44:08.649Z,11.40
2019-03-01T00:48:29.412Z,11.70
2019-03-01T00:52:50.248Z,11.40
2019-03-01T00:57:11.167Z,11.70
2019-03-01T01:01:31.930Z,12.00
2019-03-01T01:05:52.778Z,12.80
2019-03-01T01:10:13.622Z,11.70
2019-03-01T01:14:34.478Z,11.90
2019-03-01T01:18:55.221Z,12.20
2019-03-01T01:23:15.974Z,11.50
2019-03-01T01:27:36.714Z,11.70
2019-03-01T01:31:57.477Z,11.30
2019-03-01T01:36:18.324Z,10.70
2019-03-01T01:40:32.688Z,11.40
2019-03-01T01:44:47.396Z,11.30
2019-03-01T01:49:01.909Z,11.60
2019-03-01T01:53:16.556Z,11.40
2019-03-01T01:57:30.988Z,11.30
2019-03-01T02:01:45.611Z,11.40
2019-03-01T02:06:00.323Z,12.20
2019-03-01T02:10:14.111Z,11.90
2019-03-01T02:14:28.849Z,11.40
2019-03-01T02:18:43.141Z,11.50
2019-03-01T02:22:57.847Z,12.00
2019-03-01T02:27:11.844Z,12.10
2019-03-01T02:31:26.496Z,11.40
2019-03-01T02:35:41.093Z,11.70
2019-03-01T02:39:54.842Z,11.40
2019-03-01T02:44:09.542Z,11.80
2019-03-01T02:48:24.341Z,11.90
2019-03-01T02:52:41.589Z,12.10
2019-03-01T02:56:55.438Z,12.20
2019-03-01T03:01:09.233Z,12.10
2019-03-01T03:05:24.049Z,12.70
2019-03-01T03:09:38.814Z,12.60
2019-03-01T03:13:53.599Z,12.10
2019-03-01T03:18:07.667Z,12.30
2019-03-01T03:22:22.153Z,12.00
2019-03-01T03:26:36.462Z,12.20
2019-03-01T03:30:51.013Z,11.80
2019-03-01T03:35:05.632Z,12.00
2019-03-01T03:39:20.243Z,11.30
2019-03-01T03:43:34.571Z,11.00
2019-03-01T03:47:48.989Z,11.20
2019-03-01T03:52:03.692Z,11.20
2019-03-01T03:56:04.731Z,10.80
2019-03-01T04:00:25.571Z,11.10
2019-03-01T04:04:46.534Z,11.80
2019-03-01T04:08:47.405Z,11.70
2019-03-01T04:13:08.290Z,11.50
2019-03-01T04:17:29.043Z,11.20
2019-03-01T04:21:49.791Z,11.50
2019-03-01T04:25:50.694Z,11.10
2019-03-01T04:30:12.715Z,10.80
2019-03-01T04:34:33.556Z,10.50
2019-03-01T04:38:47.494Z,10.40
2019-03-01T04:43:01.580Z,11.00
2019-03-01T04:47:15.436Z,10.90
2019-03-01T04:51:30.219Z,11.00
2019-03-01T04:55:44.786Z,10.80
2019-03-01T04:59:45.672Z,10.60
2019-03-01T05:04:20.437Z,10.90
2019-03-01T05:08:29.176Z,10.70
2019-03-01T05:12:50.140Z,10.90
2019-03-01T05:17:10.876Z,10.40
2019-03-01T05:21:31.877Z,10.70
2019-03-01T05:25:52.623Z,10.70
2019-03-01T05:30:33.316Z,10.90
2019-03-01T05:34:54.352Z,10.80
2019-03-01T05:39:08.546Z,11.50
2019-03-01T05:43:27.239Z,10.80
2019-03-01T05:47:41.982Z,11.10
2019-03-01T05:52:00.407Z,10.70
2019-03-01T05:56:18.767Z,11.20
2019-03-01T06:00:33.550Z,10.70
2019-03-01T06:04:47.926Z,10.70
2019-03-01T06:09:28.654Z,10.90
2019-03-01T06:14:11.187Z,11.40
2019-03-01T06:18:51.772Z,12.00
2019-03-01T06:23:32.361Z,12.20
2019-03-01T06:28:13.011Z,12.70
2019-03-01T06:32:54.002Z,12.50
2019-03-01T06:37:08.463Z,12.20
2019-03-01T06:41:25.044Z,11.40
2019-03-01T06:45:39.817Z,11.70
2019-03-01T06:49:59.018Z,12.50
2019-03-01T06:54:13.224Z,12.80
2019-03-01T06:58:27.794Z,12.80
2019-03-01T07:02:44.174Z,13.00
2019-03-01T07:06:58.894Z,12.40
2019-03-01T07:11:13.237Z,12.90
2019-03-01T07:15:27.718Z,13.60
2019-03-01T07:19:42.462Z,12.80
2019-03-01T07:23:57.029Z,13.60
2019-03-01T07:28:11.471Z,13.90
2019-03-01T07:32:26.066Z,13.70
2019-03-01T07:36:40.743Z,13.30
2019-03-01T07:40:55.366Z,13.40
2019-03-01T07:45:09.839Z,13.60
2019-03-01T07:49:24.599Z,14.00
2019-03-01T07:53:41.805Z,12.70
2019-03-01T07:57:55.328Z,12.90
2019-03-01T08:02:09.925Z,12.60
2019-03-01T08:06:24.456Z,12.80
2019-03-01T08:10:38.799Z,13.50
2019-03-01T08:14:53.444Z,13.20
2019-03-01T08:19:08.221Z,11.60
2019-03-01T08:23:22.855Z,12.00
2019-03-01T08:27:37.264Z,10.90
2019-03-01T08:31:52.830Z,10.90
2019-03-01T08:36:08.149Z,11.50
2019-03-01T08:40:21.902Z,11.40
2019-03-01T08:44:36.554Z,12.70
2019-03-01T08:48:51.169Z,12.30
2019-03-01T08:53:05.705Z,12.90
2019-03-01T08:57:22.676Z,12.80
2019-03-01T09:01:35.880Z,13.00
2019-03-01T09:05:50.350Z,14.30
2019-03-01T09:10:05.208Z,13.70
2019-03-01T09:14:22.751Z,12.50
2019-03-01T09:18:38.922Z,12.30
2019-03-01T09:22:53.820Z,12.60
2019-03-01T09:27:08.550Z,13.30
2019-03-01T09:31:09.549Z,12.80
2019-03-01T09:39:53.650Z,12.30
2019-03-01T09:44:08.583Z,12.20
2019-03-01T09:48:23.210Z,13.30
2019-03-01T09:52:37.729Z,12.90
2019-03-01T09:56:52.351Z,12.80
2019-03-01T10:01:06.885Z,14.00
2019-03-01T10:05:20.584Z,13.70
2019-03-01T10:09:35.280Z,13.90
2019-03-01T10:13:49.871Z,13.70
2019-03-01T10:18:04.380Z,13.60
2019-03-01T10:22:18.965Z,14.80
2019-03-01T10:26:33.630Z,14.00
2019-03-01T10:30:48.133Z,13.60
2019-03-01T10:35:02.817Z,13.50
2019-03-01T10:39:45.367Z,13.30
2019-03-01T10:44:06.262Z,13.60
2019-03-01T10:48:07.316Z,12.90
2019-03-01T10:52:28.154Z,14.50
2019-03-01T10:56:48.923Z,14.60
2019-03-01T11:01:09.764Z,13.10
2019-03-01T11:05:30.651Z,14.20
2019-03-01T11:09:51.479Z,14.20
2019-03-01T11:14:12.400Z,14.60
2019-03-01T11:18:33.168Z,14.80
2019-03-01T11:22:53.899Z,15.60
2019-03-01T11:27:14.739Z,14.90
2019-03-01T11:31:35.587Z,14.30
2019-03-01T11:35:56.384Z,14.00
2019-03-01T11:40:10.413Z,14.00
2019-03-01T11:44:24.775Z,14.20
2019-03-01T11:48:39.162Z,14.00
2019-03-01T11:52:53.566Z,12.80
2019-03-01T11:57:08.294Z,13.10
2019-03-01T12:01:22.762Z,12.80
2019-03-01T12:05:37.435Z,12.40
2019-03-01T12:09:38.973Z,12.50
2019-03-01T12:13:59.990Z,12.40
2019-03-01T12:18:20.732Z,12.00
2019-03-01T12:22:41.595Z,11.40
2019-03-01T12:27:02.929Z,12.50
2019-03-01T12:31:46.122Z,12.20
2019-03-01T12:40:41.365Z,12.30
2019-03-01T12:44:56.225Z,11.80
2019-03-01T12:49:13.151Z,12.10
2019-03-01T12:53:29.601Z,12.50
2019-03-01T12:57:44.572Z,12.30
2019-03-01T13:02:00.972Z,12.10
2019-03-01T13:06:15.682Z,12.00
2019-03-01T13:10:30.188Z,11.90
2019-03-01T13:14:44.833Z,11.50
2019-03-01T13:18:59.073Z,12.10
2019-03-01T13:23:01.025Z,11.90
2019-03-01T13:27:22.964Z,11.70
2019-03-01T13:31:43.948Z,11.40
2019-03-01T13:36:05.200Z,11.70
2019-03-01T13:40:20.939Z,10.60
2019-03-01T13:44:36.065Z,10.10
2019-03-01T13:48:54.096Z,10.20
2019-03-01T13:53:08.858Z,9.40
2019-03-01T13:57:23.139Z,9.50
2019-03-01T14:01:37.882Z,9.60
2019-03-01T14:05:54.859Z,9.50
2019-03-01T14:10:09.470Z,8.90
2019-03-01T14:14:10.458Z,9.60
2019-03-01T14:18:11.450Z,9.60
2019-03-01T14:22:32.209Z,9.70
2019-03-01T14:26:53.918Z,9.20
2019-03-01T14:31:15.642Z,9.50
2019-03-01T14:35:36.573Z,10.40
2019-03-01T14:39:51.688Z,10.60
2019-03-01T14:44:06.436Z,10.40
2019-03-01T14:48:20.339Z,10.70
2019-03-01T14:52:34.937Z,11.20
2019-03-01T14:56:49.569Z,10.20
2019-03-01T15:01:04.177Z,11.60
2019-03-01T15:05:19.878Z,11.50
2019-03-01T15:09:34.467Z,10.60
2019-03-01T15:13:49.126Z,10.60
2019-03-01T15:18:03.612Z,10.20
2019-03-01T15:22:18.310Z,9.90
2019-03-01T15:26:32.863Z,9.70
2019-03-01T15:30:47.541Z,9.20
2019-03-01T15:35:03.909Z,10.30
2019-03-01T15:39:20.020Z,9.40
2019-03-01T15:43:34.902Z,9.50
2019-03-01T15:47:50.384Z,9.50
2019-03-01T15:52:05.342Z,9.60
2019-03-01T15:56:07.194Z,10.00
2019-03-01T16:00:30.318Z,9.70
2019-03-01T16:04:52.021Z,9.40
2019-03-01T16:09:13.580Z,9.70
2019-03-01T16:13:14.475Z,9.90
2019-03-01T16:17:35.242Z,9.80
2019-03-01T16:21:56.253Z,9.50
2019-03-01T16:26:17.005Z,9.30
2019-03-01T16:30:37.781Z,9.90
2019-03-01T16:34:58.635Z,9.40
2019-03-01T16:39:13.311Z,9.40
2019-03-01T16:43:28.639Z,9.50
2019-03-01T16:47:44.358Z,9.70
2019-03-01T16:51:58.823Z,9.10
2019-03-01T16:56:13.525Z,9.30
2019-03-01T17:00:27.969Z,9.40
2019-03-01T17:04:42.447Z,9.60
2019-03-01T17:08:43.472Z,10.20
2019-03-01T17:12:44.551Z,10.00
2019-03-01T17:16:45.429Z,9.60
2019-03-01T17:21:06.283Z,10.40
2019-03-01T17:25:27.737Z,10.20
2019-03-01T17:29:49.869Z,10.90
2019-03-01T17:33:50.832Z,10.40
2019-03-01T17:38:11.662Z,11.30
2019-03-01T17:42:32.603Z,10.50
2019-03-01T17:46:53.427Z,10.40
2019-03-01T17:51:14.289Z,10.10
2019-03-01T17:55:37.612Z,10.60
2019-03-01T17:59:57.737Z,10.60
2019-03-01T18:04:18.591Z,10.40
2019-03-01T18:08:19.565Z,10.10
2019-03-01T18:12:21.230Z,10.30
2019-03-01T18:16:43.266Z,11.60
2019-03-01T18:21:04.114Z,11.20
2019-03-01T18:25:26.151Z,11.20
2019-03-01T18:29:47.515Z,11.90
2019-03-01T18:34:08.362Z,10.70
2019-03-01T18:38:09.460Z,11.00
2019-03-01T18:42:10.598Z,11.40
2019-03-01T18:46:14.666Z,11.00
2019-03-01T18:50:35.245Z,10.80
2019-03-01T18:54:56.071Z,10.10
2019-03-01T18:59:17.315Z,10.60
2019-03-01T19:03:41.471Z,10.10
2019-03-01T19:08:04.770Z,9.60
2019-03-01T19:12:05.574Z,9.90
2019-03-01T19:16:28.574Z,10.00
2019-03-01T19:21:09.091Z,8.60
2019-03-01T19:25:30.025Z,8.60
2019-03-01T19:29:50.915Z,9.10
2019-03-01T19:33:51.901Z,8.50
2019-03-01T19:38:12.875Z,8.40
2019-03-01T19:42:29.500Z,8.60
2019-03-01T19:46:44.111Z,9.10
2019-03-01T19:51:01.589Z,9.20
2019-03-01T19:55:14.940Z,8.80
2019-03-01T19:59:29.366Z,9.20
2019-03-01T20:03:45.441Z,9.40
2019-03-01T20:08:00.998Z,8.90
2019-03-01T20:12:15.715Z,9.40
2019-03-01T20:16:30.365Z,9.20
2019-03-01T20:20:44.924Z,9.30
2019-03-01T20:24:58.880Z,8.70
2019-03-01T20:29:12.825Z,8.70
2019-03-01T20:33:27.878Z,8.60
2019-03-01T20:37:42.409Z,8.00
2019-03-01T20:41:57.579Z,8.60
2019-03-01T20:46:12.102Z,8.90
2019-03-01T20:50:26.864Z,8.90
2019-03-01T20:54:41.446Z,8.10
2019-03-01T20:58:42.574Z,9.00
2019-03-01T21:03:03.420Z,8.80
2019-03-01T21:07:24.184Z,8.80
2019-03-01T21:11:45.059Z,9.80
2019-03-01T21:16:05.963Z,9.70
2019-03-01T21:20:26.883Z,9.50
2019-03-01T21:24:47.655Z,9.20
2019-03-01T21:29:08.989Z,8.20
2019-03-01T21:33:31.220Z,9.00
2019-03-01T21:37:34.722Z,9.40
2019-03-01T21:41:48.555Z,9.30
2019-03-01T21:46:02.444Z,9.10
2019-03-01T21:50:17.261Z,9.60
2019-03-01T21:54:32.330Z,9.80
2019-03-01T21:58:46.429Z,9.90
2019-03-01T22:02:48.939Z,10.00
2019-03-01T22:06:50.254Z,10.20
2019-03-01T22:10:51.269Z,9.60
2019-03-01T22:15:33.889Z,9.60
2019-03-01T22:19:54.814Z,9.30
2019-03-01T22:24:15.559Z,8.60
2019-03-01T22:28:37.072Z,9.30
2019-03-01T22:32:58.158Z,9.30
2019-03-01T22:37:18.904Z,9.80
2019-03-01T22:41:35.621Z,9.10
2019-03-01T22:45:49.714Z,9.40
2019-03-01T22:50:07.025Z,8.80
2019-03-01T22:54:20.749Z,8.60
2019-03-01T22:58:21.642Z,9.60
2019-03-01T23:02:44.384Z,9.00
2019-03-01T23:07:06.433Z,8.30
2019-03-01T23:11:28.653Z,8.70
2019-03-01T23:15:30.127Z,8.60
2019-03-01T23:19:51.693Z,9.20
2019-03-01T23:24:13.622Z,9.40
2019-03-01T23:28:34.362Z,9.70
2019-03-01T23:32:55.996Z,9.50
2019-03-01T23:37:17.782Z,9.00
2019-03-01T23:41:18.659Z,9.20
2019-03-01T23:45:39.517Z,9.80
2019-03-01T23:50:00.595Z,9.70
2019-03-01T23:54:21.491Z,10.10
2019-03-01T23:58:42.557Z,9.50
